sensor_id;sensor_type;location;lat;lon;timestamp;P1;durP1;ratioP1;P2;durP2;ratioP2
54875;SDS011;40764;48.472;8.166;2022-10-22T00:02:19;2.95;;;1.10;;
54875;SDS011;40764;48.472;8.166;2022-10-22T00:08:19;3.47;;;0.80;;
54875;SDS011;40764;48.472;8.166;2022-10-22T00:14:20;8.25;;;0.88;;
54875;SDS011;40764;48.472;8.166;2022-10-22T00:20:20;3.80;;;1.13;;
54875;SDS011;40764;48.472;8.166;2022-10-22T00:26:21;5.93;;;1.33;;
54875;SDS011;40764;48.472;8.166;2022-10-22T00:32:22;14.07;;;1.17;;
54875;SDS011;40764;48.472;8.166;2022-10-22T00:38:22;2.72;;;0.60;;
54875;SDS011;40764;48.472;8.166;2022-10-22T00:51:03;5.22;;;1.40;;
54875;SDS011;40764;48.472;8.166;2022-10-22T00:57:06;2.90;;;1.10;;
54875;SDS011;40764;48.472;8.166;2022-10-22T01:03:07;9.10;;;1.17;;
54875;SDS011;40764;48.472;8.166;2022-10-22T01:15:21;3.67;;;1.13;;
54875;SDS011;40764;48.472;8.166;2022-10-22T01:33:52;12.90;;;1.17;;
54875;SDS011;40764;48.472;8.166;2022-10-22T01:39:54;2.92;;;1.20;;
54875;SDS011;40764;48.472;8.166;2022-10-22T01:45:58;8.70;;;0.90;;
54875;SDS011;40764;48.472;8.166;2022-10-22T01:52:08;14.15;;;2.50;;
54875;SDS011;40764;48.472;8.166;2022-10-22T01:58:17;15.32;;;2.20;;
54875;SDS011;40764;48.472;8.166;2022-10-22T02:04:45;15.65;;;3.72;;
54875;SDS011;40764;48.472;8.166;2022-10-22T02:10:51;6.28;;;1.40;;
54875;SDS011;40764;48.472;8.166;2022-10-22T02:16:52;2.00;;;0.98;;
54875;SDS011;40764;48.472;8.166;2022-10-22T02:22:55;7.65;;;0.90;;
54875;SDS011;40764;48.472;8.166;2022-10-22T02:29:14;5.43;;;1.15;;
54875;SDS011;40764;48.472;8.166;2022-10-22T02:35:22;6.85;;;1.67;;
54875;SDS011;40764;48.472;8.166;2022-10-22T02:41:25;5.72;;;1.48;;
54875;SDS011;40764;48.472;8.166;2022-10-22T02:47:25;3.73;;;1.10;;
54875;SDS011;40764;48.472;8.166;2022-10-22T02:53:26;4.25;;;1.50;;
54875;SDS011;40764;48.472;8.166;2022-10-22T02:59:26;6.13;;;1.33;;
54875;SDS011;40764;48.472;8.166;2022-10-22T03:05:26;6.13;;;1.20;;
54875;SDS011;40764;48.472;8.166;2022-10-22T03:11:27;5.13;;;1.48;;
54875;SDS011;40764;48.472;8.166;2022-10-22T03:17:27;7.78;;;1.45;;
54875;SDS011;40764;48.472;8.166;2022-10-22T03:23:27;13.13;;;1.20;;
54875;SDS011;40764;48.472;8.166;2022-10-22T03:29:28;4.47;;;1.20;;
54875;SDS011;40764;48.472;8.166;2022-10-22T03:35:31;3.17;;;1.20;;
54875;SDS011;40764;48.472;8.166;2022-10-22T03:41:34;8.23;;;1.40;;
54875;SDS011;40764;48.472;8.166;2022-10-22T03:47:35;6.13;;;1.33;;
54875;SDS011;40764;48.472;8.166;2022-10-22T03:53:36;17.40;;;1.90;;
54875;SDS011;40764;48.472;8.166;2022-10-22T03:59:40;5.93;;;2.20;;
54875;SDS011;40764;48.472;8.166;2022-10-22T04:05:42;3.85;;;1.23;;
54875;SDS011;40764;48.472;8.166;2022-10-22T04:11:42;6.57;;;1.65;;
54875;SDS011;40764;48.472;8.166;2022-10-22T04:17:43;10.20;;;1.77;;
54875;SDS011;40764;48.472;8.166;2022-10-22T04:23:45;8.57;;;1.73;;
54875;SDS011;40764;48.472;8.166;2022-10-22T04:29:46;14.77;;;2.03;;
54875;SDS011;40764;48.472;8.166;2022-10-22T04:35:46;9.33;;;1.90;;
54875;SDS011;40764;48.472;8.166;2022-10-22T04:41:47;17.23;;;5.27;;
54875;SDS011;40764;48.472;8.166;2022-10-22T04:47:48;8.97;;;2.30;;
54875;SDS011;40764;48.472;8.166;2022-10-22T04:53:48;11.10;;;1.40;;
54875;SDS011;40764;48.472;8.166;2022-10-22T04:59:49;1.63;;;1.10;;
54875;SDS011;40764;48.472;8.166;2022-10-22T05:05:49;5.75;;;1.60;;
54875;SDS011;40764;48.472;8.166;2022-10-22T05:11:50;5.07;;;1.63;;
54875;SDS011;40764;48.472;8.166;2022-10-22T05:23:52;9.27;;;4.57;;
54875;SDS011;40764;48.472;8.166;2022-10-22T05:29:53;12.32;;;2.40;;
54875;SDS011;40764;48.472;8.166;2022-10-22T05:35:54;5.60;;;1.67;;
54875;SDS011;40764;48.472;8.166;2022-10-22T05:41:54;13.27;;;2.27;;
54875;SDS011;40764;48.472;8.166;2022-10-22T05:47:55;4.88;;;1.17;;
54875;SDS011;40764;48.472;8.166;2022-10-22T05:53:56;5.72;;;2.42;;
54875;SDS011;40764;48.472;8.166;2022-10-22T05:59:58;10.45;;;2.20;;
54875;SDS011;40764;48.472;8.166;2022-10-22T06:05:59;7.85;;;1.27;;
54875;SDS011;40764;48.472;8.166;2022-10-22T06:12:01;2.97;;;1.38;;
54875;SDS011;40764;48.472;8.166;2022-10-22T06:18:02;13.50;;;1.20;;
54875;SDS011;40764;48.472;8.166;2022-10-22T06:24:02;6.45;;;1.45;;
54875;SDS011;40764;48.472;8.166;2022-10-22T06:30:04;6.18;;;1.40;;
54875;SDS011;40764;48.472;8.166;2022-10-22T06:36:14;2.03;;;1.60;;
54875;SDS011;40764;48.472;8.166;2022-10-22T06:42:17;13.23;;;1.73;;
54875;SDS011;40764;48.472;8.166;2022-10-22T06:48:17;9.30;;;1.80;;
54875;SDS011;40764;48.472;8.166;2022-10-22T06:54:17;9.98;;;1.55;;
54875;SDS011;40764;48.472;8.166;2022-10-22T07:00:18;6.67;;;1.40;;
54875;SDS011;40764;48.472;8.166;2022-10-22T07:06:19;7.50;;;1.50;;
54875;SDS011;40764;48.472;8.166;2022-10-22T07:12:20;10.10;;;2.65;;
54875;SDS011;40764;48.472;8.166;2022-10-22T07:18:21;4.00;;;1.50;;
54875;SDS011;40764;48.472;8.166;2022-10-22T07:24:21;1.70;;;1.00;;
54875;SDS011;40764;48.472;8.166;2022-10-22T07:30:22;7.70;;;1.70;;
54875;SDS011;40764;48.472;8.166;2022-10-22T07:36:22;8.18;;;1.92;;
54875;SDS011;40764;48.472;8.166;2022-10-22T07:42:22;5.10;;;1.50;;
54875;SDS011;40764;48.472;8.166;2022-10-22T07:48:23;8.07;;;3.15;;
54875;SDS011;40764;48.472;8.166;2022-10-22T07:54:23;11.40;;;3.80;;
54875;SDS011;40764;48.472;8.166;2022-10-22T08:00:23;3.17;;;1.97;;
54875;SDS011;40764;48.472;8.166;2022-10-22T08:06:24;19.73;;;4.57;;
54875;SDS011;40764;48.472;8.166;2022-10-22T08:12:24;6.63;;;2.90;;
54875;SDS011;40764;48.472;8.166;2022-10-22T08:18:25;12.90;;;2.20;;
54875;SDS011;40764;48.472;8.166;2022-10-22T08:24:26;4.22;;;1.90;;
54875;SDS011;40764;48.472;8.166;2022-10-22T08:30:27;19.27;;;2.40;;
54875;SDS011;40764;48.472;8.166;2022-10-22T08:36:28;3.38;;;1.70;;
54875;SDS011;40764;48.472;8.166;2022-10-22T08:48:53;16.63;;;3.83;;
54875;SDS011;40764;48.472;8.166;2022-10-22T08:54:57;11.57;;;2.00;;
54875;SDS011;40764;48.472;8.166;2022-10-22T09:00:59;4.82;;;1.42;;
54875;SDS011;40764;48.472;8.166;2022-10-22T09:07:07;8.10;;;1.98;;
54875;SDS011;40764;48.472;8.166;2022-10-22T09:13:10;4.47;;;1.50;;
54875;SDS011;40764;48.472;8.166;2022-10-22T09:25:30;8.25;;;1.92;;
54875;SDS011;40764;48.472;8.166;2022-10-22T09:31:34;5.28;;;1.67;;
54875;SDS011;40764;48.472;8.166;2022-10-22T09:37:34;6.27;;;1.90;;
54875;SDS011;40764;48.472;8.166;2022-10-22T09:43:34;2.85;;;1.67;;
54875;SDS011;40764;48.472;8.166;2022-10-22T09:49:35;6.63;;;1.50;;
54875;SDS011;40764;48.472;8.166;2022-10-22T09:55:37;2.63;;;1.40;;
54875;SDS011;40764;48.472;8.166;2022-10-22T10:01:38;4.97;;;1.60;;
54875;SDS011;40764;48.472;8.166;2022-10-22T10:07:39;5.70;;;1.88;;
54875;SDS011;40764;48.472;8.166;2022-10-22T10:13:48;2.65;;;1.20;;
54875;SDS011;40764;48.472;8.166;2022-10-22T10:20:10;6.00;;;1.50;;
54875;SDS011;40764;48.472;8.166;2022-10-22T10:26:42;4.20;;;1.42;;
54875;SDS011;40764;48.472;8.166;2022-10-22T10:33:10;7.65;;;1.40;;
54875;SDS011;40764;48.472;8.166;2022-10-22T10:39:18;3.93;;;1.67;;
54875;SDS011;40764;48.472;8.166;2022-10-22T10:45:31;5.70;;;1.63;;
54875;SDS011;40764;48.472;8.166;2022-10-22T11:04:23;5.05;;;1.50;;
54875;SDS011;40764;48.472;8.166;2022-10-22T11:10:30;9.27;;;2.78;;
54875;SDS011;40764;48.472;8.166;2022-10-22T11:16:33;7.63;;;2.00;;
54875;SDS011;40764;48.472;8.166;2022-10-22T11:22:46;6.25;;;1.35;;
54875;SDS011;40764;48.472;8.166;2022-10-22T11:28:50;3.25;;;1.30;;
54875;SDS011;40764;48.472;8.166;2022-10-22T11:34:56;8.80;;;1.55;;
54875;SDS011;40764;48.472;8.166;2022-10-22T11:41:04;14.88;;;3.97;;
54875;SDS011;40764;48.472;8.166;2022-10-22T11:47:26;7.10;;;2.08;;
54875;SDS011;40764;48.472;8.166;2022-10-22T11:53:31;4.03;;;1.38;;
54875;SDS011;40764;48.472;8.166;2022-10-22T11:59:37;7.55;;;2.13;;
54875;SDS011;40764;48.472;8.166;2022-10-22T12:05:40;7.95;;;1.80;;
54875;SDS011;40764;48.472;8.166;2022-10-22T12:11:44;22.50;;;3.03;;
54875;SDS011;40764;48.472;8.166;2022-10-22T12:17:46;9.52;;;2.22;;
54875;SDS011;40764;48.472;8.166;2022-10-22T12:23:47;9.15;;;1.50;;
54875;SDS011;40764;48.472;8.166;2022-10-22T12:29:53;7.10;;;1.45;;
54875;SDS011;40764;48.472;8.166;2022-10-22T12:35:55;13.80;;;2.20;;
54875;SDS011;40764;48.472;8.166;2022-10-22T12:41:56;9.07;;;2.47;;
54875;SDS011;40764;48.472;8.166;2022-10-22T12:47:58;7.90;;;1.80;;
54875;SDS011;40764;48.472;8.166;2022-10-22T12:54:08;13.73;;;3.35;;
54875;SDS011;40764;48.472;8.166;2022-10-22T13:00:26;13.45;;;3.05;;
54875;SDS011;40764;48.472;8.166;2022-10-22T13:06:32;14.50;;;2.70;;
54875;SDS011;40764;48.472;8.166;2022-10-22T13:12:35;7.18;;;1.92;;
54875;SDS011;40764;48.472;8.166;2022-10-22T13:18:36;17.52;;;2.92;;
54875;SDS011;40764;48.472;8.166;2022-10-22T13:24:47;11.15;;;2.05;;
54875;SDS011;40764;48.472;8.166;2022-10-22T13:30:55;14.85;;;3.15;;
54875;SDS011;40764;48.472;8.166;2022-10-22T13:36:58;8.98;;;2.30;;
54875;SDS011;40764;48.472;8.166;2022-10-22T13:42:58;9.50;;;1.97;;
54875;SDS011;40764;48.472;8.166;2022-10-22T13:48:59;10.43;;;1.92;;
54875;SDS011;40764;48.472;8.166;2022-10-22T13:54:59;12.30;;;2.20;;
54875;SDS011;40764;48.472;8.166;2022-10-22T14:01:00;8.63;;;2.00;;
54875;SDS011;40764;48.472;8.166;2022-10-22T14:07:10;10.60;;;2.15;;
54875;SDS011;40764;48.472;8.166;2022-10-22T14:13:15;17.83;;;4.05;;
54875;SDS011;40764;48.472;8.166;2022-10-22T14:19:17;8.10;;;2.20;;
54875;SDS011;40764;48.472;8.166;2022-10-22T14:25:18;11.97;;;2.20;;
54875;SDS011;40764;48.472;8.166;2022-10-22T14:31:20;6.38;;;1.85;;
54875;SDS011;40764;48.472;8.166;2022-10-22T14:37:21;12.27;;;1.93;;
54875;SDS011;40764;48.472;8.166;2022-10-22T14:43:23;14.55;;;2.65;;
54875;SDS011;40764;48.472;8.166;2022-10-22T14:49:26;16.85;;;2.17;;
54875;SDS011;40764;48.472;8.166;2022-10-22T14:55:27;10.05;;;2.38;;
54875;SDS011;40764;48.472;8.166;2022-10-22T15:01:28;10.30;;;2.27;;
54875;SDS011;40764;48.472;8.166;2022-10-22T15:07:28;6.43;;;2.67;;
54875;SDS011;40764;48.472;8.166;2022-10-22T15:13:29;10.03;;;2.17;;
54875;SDS011;40764;48.472;8.166;2022-10-22T15:25:30;10.35;;;2.00;;
54875;SDS011;40764;48.472;8.166;2022-10-22T15:31:44;12.10;;;3.70;;
54875;SDS011;40764;48.472;8.166;2022-10-22T15:37:49;20.75;;;3.38;;
54875;SDS011;40764;48.472;8.166;2022-10-22T15:43:50;21.60;;;3.15;;
54875;SDS011;40764;48.472;8.166;2022-10-22T15:49:51;22.35;;;3.10;;
54875;SDS011;40764;48.472;8.166;2022-10-22T15:55:52;13.50;;;3.50;;
54875;SDS011;40764;48.472;8.166;2022-10-22T16:01:54;18.80;;;5.95;;
54875;SDS011;40764;48.472;8.166;2022-10-22T16:07:54;26.25;;;11.68;;
54875;SDS011;40764;48.472;8.166;2022-10-22T16:13:56;18.70;;;5.87;;
54875;SDS011;40764;48.472;8.166;2022-10-22T16:19:58;18.15;;;5.13;;
54875;SDS011;40764;48.472;8.166;2022-10-22T16:26:00;10.20;;;4.50;;
54875;SDS011;40764;48.472;8.166;2022-10-22T16:32:01;18.63;;;5.18;;
54875;SDS011;40764;48.472;8.166;2022-10-22T16:38:01;12.65;;;3.55;;
54875;SDS011;40764;48.472;8.166;2022-10-22T16:44:03;11.03;;;3.33;;
54875;SDS011;40764;48.472;8.166;2022-10-22T16:50:05;14.10;;;3.80;;
54875;SDS011;40764;48.472;8.166;2022-10-22T16:56:13;37.58;;;16.38;;
54875;SDS011;40764;48.472;8.166;2022-10-22T17:02:15;23.80;;;8.07;;
54875;SDS011;40764;48.472;8.166;2022-10-22T17:08:15;25.10;;;6.03;;
54875;SDS011;40764;48.472;8.166;2022-10-22T17:14:15;33.93;;;7.97;;
54875;SDS011;40764;48.472;8.166;2022-10-22T17:20:16;8.13;;;3.77;;
54875;SDS011;40764;48.472;8.166;2022-10-22T17:26:18;23.57;;;5.83;;
54875;SDS011;40764;48.472;8.166;2022-10-22T17:32:20;20.67;;;4.13;;
54875;SDS011;40764;48.472;8.166;2022-10-22T17:38:20;20.00;;;3.70;;
54875;SDS011;40764;48.472;8.166;2022-10-22T17:44:21;16.98;;;3.40;;
54875;SDS011;40764;48.472;8.166;2022-10-22T17:50:21;14.20;;;5.53;;
54875;SDS011;40764;48.472;8.166;2022-10-22T17:56:25;36.63;;;16.00;;
54875;SDS011;40764;48.472;8.166;2022-10-22T18:02:27;16.05;;;8.25;;
54875;SDS011;40764;48.472;8.166;2022-10-22T18:08:29;14.85;;;7.32;;
54875;SDS011;40764;48.472;8.166;2022-10-22T18:14:29;23.67;;;11.27;;
54875;SDS011;40764;48.472;8.166;2022-10-22T18:20:29;22.63;;;9.15;;
54875;SDS011;40764;48.472;8.166;2022-10-22T18:26:30;27.03;;;14.27;;
54875;SDS011;40764;48.472;8.166;2022-10-22T18:32:31;25.70;;;11.55;;
54875;SDS011;40764;48.472;8.166;2022-10-22T18:38:32;38.35;;;13.50;;
54875;SDS011;40764;48.472;8.166;2022-10-22T18:44:34;16.52;;;7.72;;
54875;SDS011;40764;48.472;8.166;2022-10-22T18:50:35;17.80;;;4.83;;
54875;SDS011;40764;48.472;8.166;2022-10-22T18:56:35;29.13;;;4.80;;
54875;SDS011;40764;48.472;8.166;2022-10-22T19:02:37;15.93;;;4.22;;
54875;SDS011;40764;48.472;8.166;2022-10-22T19:08:37;25.73;;;5.40;;
54875;SDS011;40764;48.472;8.166;2022-10-22T19:14:37;21.03;;;6.23;;
54875;SDS011;40764;48.472;8.166;2022-10-22T19:20:38;19.55;;;4.40;;
54875;SDS011;40764;48.472;8.166;2022-10-22T19:26:38;13.63;;;4.90;;
54875;SDS011;40764;48.472;8.166;2022-10-22T19:32:39;17.93;;;4.60;;
54875;SDS011;40764;48.472;8.166;2022-10-22T19:38:40;16.80;;;5.00;;
54875;SDS011;40764;48.472;8.166;2022-10-22T19:44:42;21.45;;;4.43;;
54875;SDS011;40764;48.472;8.166;2022-10-22T19:50:42;22.55;;;4.10;;
54875;SDS011;40764;48.472;8.166;2022-10-22T19:56:43;12.47;;;3.37;;
54875;SDS011;40764;48.472;8.166;2022-10-22T20:02:44;22.60;;;5.57;;
54875;SDS011;40764;48.472;8.166;2022-10-22T20:08:44;12.65;;;3.70;;
54875;SDS011;40764;48.472;8.166;2022-10-22T20:14:45;28.03;;;8.67;;
54875;SDS011;40764;48.472;8.166;2022-10-22T20:20:45;23.37;;;7.17;;
54875;SDS011;40764;48.472;8.166;2022-10-22T20:26:46;13.60;;;3.60;;
54875;SDS011;40764;48.472;8.166;2022-10-22T20:32:46;21.20;;;3.73;;
54875;SDS011;40764;48.472;8.166;2022-10-22T20:38:47;25.73;;;4.18;;
54875;SDS011;40764;48.472;8.166;2022-10-22T20:44:48;7.10;;;3.27;;
54875;SDS011;40764;48.472;8.166;2022-10-22T20:50:48;13.90;;;3.13;;
54875;SDS011;40764;48.472;8.166;2022-10-22T20:56:49;23.25;;;4.05;;
54875;SDS011;40764;48.472;8.166;2022-10-22T21:02:49;16.77;;;3.07;;
54875;SDS011;40764;48.472;8.166;2022-10-22T21:08:49;22.83;;;4.25;;
54875;SDS011;40764;48.472;8.166;2022-10-22T21:14:50;27.30;;;4.17;;
54875;SDS011;40764;48.472;8.166;2022-10-22T21:20:50;11.77;;;3.25;;
54875;SDS011;40764;48.472;8.166;2022-10-22T21:26:51;23.35;;;5.75;;
54875;SDS011;40764;48.472;8.166;2022-10-22T21:32:53;28.63;;;7.90;;
54875;SDS011;40764;48.472;8.166;2022-10-22T21:38:55;18.58;;;6.28;;
54875;SDS011;40764;48.472;8.166;2022-10-22T21:44:56;20.53;;;5.33;;
54875;SDS011;40764;48.472;8.166;2022-10-22T21:50:56;23.92;;;5.80;;
54875;SDS011;40764;48.472;8.166;2022-10-22T21:56:56;15.60;;;4.55;;
54875;SDS011;40764;48.472;8.166;2022-10-22T22:02:57;13.70;;;4.50;;
54875;SDS011;40764;48.472;8.166;2022-10-22T22:08:57;8.87;;;4.40;;
54875;SDS011;40764;48.472;8.166;2022-10-22T22:14:58;23.00;;;3.90;;
54875;SDS011;40764;48.472;8.166;2022-10-22T22:20:58;11.95;;;4.03;;
54875;SDS011;40764;48.472;8.166;2022-10-22T22:26:59;16.30;;;4.00;;
54875;SDS011;40764;48.472;8.166;2022-10-22T22:32:59;12.33;;;2.93;;
54875;SDS011;40764;48.472;8.166;2022-10-22T22:39:00;22.50;;;4.60;;
54875;SDS011;40764;48.472;8.166;2022-10-22T22:45:01;18.23;;;4.17;;
54875;SDS011;40764;48.472;8.166;2022-10-22T22:51:02;18.63;;;2.80;;
54875;SDS011;40764;48.472;8.166;2022-10-22T22:57:04;15.57;;;3.78;;
54875;SDS011;40764;48.472;8.166;2022-10-22T23:03:04;23.90;;;3.50;;
54875;SDS011;40764;48.472;8.166;2022-10-22T23:09:05;9.88;;;3.13;;
54875;SDS011;40764;48.472;8.166;2022-10-22T23:15:07;29.67;;;3.88;;
54875;SDS011;40764;48.472;8.166;2022-10-22T23:21:11;18.83;;;3.80;;
54875;SDS011;40764;48.472;8.166;2022-10-22T23:27:13;16.83;;;3.15;;
54875;SDS011;40764;48.472;8.166;2022-10-22T23:33:14;13.30;;;3.17;;
54875;SDS011;40764;48.472;8.166;2022-10-22T23:39:16;22.67;;;3.10;;
54875;SDS011;40764;48.472;8.166;2022-10-22T23:45:18;23.98;;;2.78;;
54875;SDS011;40764;48.472;8.166;2022-10-22T23:51:19;15.55;;;2.97;;
54875;SDS011;40764;48.472;8.166;2022-10-22T23:57:20;15.30;;;3.55;;
